Austinville, Virginia
Current Conditions -  °F | °C
As of 4:35 AM on Sunday 26 Oct 2014 (Local Time) from KHLX Reporting Station
Scattered Clouds Scattered Clouds  
Wind Chill: 56°   Ceiling: Unl
Heat Index: 56°   Visibility: 10mi
Dew Point: 50°   Wind: 13mph
Humidity: 79%   Direction: 290°WNW
Pressure: 29.89"   Gusts: 20mph
Location:  36.85°N, 80.91°W
Report Text: KHLX 260835Z AUTO 29011G17KT 10SM SCT039 14/10 A2989 RMK AO2 T01360100
Loading
Personal Weather Stations






























Interactive Weather Map
Tropical Storm Tracking
New forecast layout! Learn more

10-Day Weather Forecast

Advertisements
Track Severe Weather on mobile